createdAt,value
2023-05-22T00:01:27.420Z,19.20
2023-05-22T00:03:54.736Z,18.50
2023-05-22T00:06:22.422Z,17.80
2023-05-22T00:08:49.326Z,18.10
2023-05-22T00:11:16.223Z,18.60
2023-05-22T00:13:42.996Z,18.20
2023-05-22T00:16:09.862Z,19.90
2023-05-22T00:18:36.624Z,18.00
2023-05-22T00:21:03.611Z,18.20
2023-05-22T00:23:30.344Z,17.90
2023-05-22T00:25:57.242Z,19.10
2023-05-22T00:28:24.087Z,17.60
2023-05-22T00:30:51.029Z,18.20
2023-05-22T00:33:17.974Z,19.30
2023-05-22T00:35:46.947Z,19.20
2023-05-22T00:38:32.881Z,18.70
2023-05-22T00:41:04.132Z,20.00
2023-05-22T00:43:33.218Z,19.30
2023-05-22T00:46:00.065Z,18.60
2023-05-22T00:48:30.019Z,18.10
2023-05-22T00:50:58.107Z,19.60
2023-05-22T00:53:25.688Z,19.50
2023-05-22T00:55:54.270Z,19.90
2023-05-22T00:58:22.034Z,18.90
2023-05-22T01:00:49.180Z,18.60
2023-05-22T01:03:18.227Z,19.20
2023-05-22T01:05:45.367Z,17.30
2023-05-22T01:08:12.604Z,17.90
2023-05-22T01:10:40.453Z,19.10
2023-05-22T01:13:10.526Z,19.20
2023-05-22T01:15:57.535Z,18.10
2023-05-22T01:18:31.886Z,17.40
2023-05-22T01:21:12.312Z,16.10
2023-05-22T01:24:03.215Z,16.70
2023-05-22T01:27:07.751Z,18.40
2023-05-22T01:30:04.610Z,19.20
2023-05-22T01:32:31.925Z,18.80
2023-05-22T01:35:02.071Z,18.10
2023-05-22T01:37:29.660Z,17.40
2023-05-22T01:39:56.837Z,17.10
2023-05-22T01:42:26.175Z,18.50
2023-05-22T01:44:53.090Z,17.40
2023-05-22T01:47:19.933Z,17.50
2023-05-22T01:49:47.592Z,18.30
2023-05-22T01:53:01.731Z,17.90
2023-05-22T01:55:46.769Z,15.80
2023-05-22T01:58:26.171Z,16.80
2023-05-22T02:00:56.806Z,17.10
2023-05-22T02:03:28.601Z,17.10
2023-05-22T02:05:55.927Z,17.00
2023-05-22T02:08:26.015Z,18.10
2023-05-22T02:10:55.723Z,17.20
2023-05-22T02:13:23.605Z,16.20
2023-05-22T02:15:51.366Z,16.60
2023-05-22T02:18:18.484Z,16.10
2023-05-22T02:20:46.535Z,15.60
2023-05-22T02:23:13.578Z,15.80
2023-05-22T02:25:40.971Z,16.20
2023-05-22T02:28:07.828Z,16.70
2023-05-22T02:30:34.626Z,16.20
2023-05-22T02:33:06.180Z,15.60
2023-05-22T02:35:33.185Z,16.50
2023-05-22T02:38:00.127Z,15.90
2023-05-22T02:40:27.113Z,16.00
2023-05-22T02:42:54.141Z,16.60
2023-05-22T02:45:21.426Z,16.00
2023-05-22T02:47:48.287Z,15.20
2023-05-22T02:50:15.259Z,15.30
2023-05-22T02:52:42.694Z,16.70
2023-05-22T02:55:09.728Z,15.20
2023-05-22T02:57:39.048Z,15.80
2023-05-22T03:00:11.859Z,15.60
2023-05-22T03:02:39.307Z,15.70
2023-05-22T03:05:07.329Z,15.80
2023-05-22T03:07:35.051Z,16.30
2023-05-22T03:10:01.967Z,14.80
2023-05-22T03:12:28.735Z,15.50
2023-05-22T03:14:55.939Z,15.40
2023-05-22T03:17:22.789Z,14.30
2023-05-22T03:19:52.705Z,14.90
2023-05-22T03:22:19.658Z,15.20
2023-05-22T03:24:46.435Z,14.20
2023-05-22T03:27:16.184Z,14.70
2023-05-22T03:29:42.934Z,15.60
2023-05-22T03:32:09.845Z,14.80
2023-05-22T03:34:36.729Z,14.40
2023-05-22T03:37:03.656Z,15.50
2023-05-22T03:39:30.542Z,14.90
2023-05-22T03:41:57.371Z,15.80
2023-05-22T03:44:24.520Z,14.30
2023-05-22T03:46:51.270Z,13.40
2023-05-22T03:49:18.022Z,13.70
2023-05-22T03:51:44.904Z,14.50
2023-05-22T03:54:11.658Z,14.40
2023-05-22T03:56:38.457Z,14.30
2023-05-22T03:59:05.255Z,15.50
2023-05-22T04:01:32.058Z,16.00
2023-05-22T04:03:59.035Z,15.60
2023-05-22T04:06:26.792Z,15.20
2023-05-22T04:08:53.657Z,15.60
2023-05-22T04:11:21.189Z,15.00
2023-05-22T04:13:49.653Z,15.00
2023-05-22T04:16:17.748Z,15.20
2023-05-22T04:18:44.695Z,15.20
2023-05-22T04:21:13.023Z,15.80
2023-05-22T04:23:43.543Z,16.20
2023-05-22T04:26:10.415Z,15.10
2023-05-22T04:28:38.083Z,15.60
2023-05-22T04:31:07.846Z,15.00
2023-05-22T04:33:35.031Z,15.30
2023-05-22T04:36:02.998Z,15.90
2023-05-22T04:38:30.082Z,15.40
2023-05-22T04:40:57.322Z,16.30
2023-05-22T04:43:26.724Z,16.20
2023-05-22T04:45:54.910Z,14.60
2023-05-22T04:48:22.673Z,15.60
2023-05-22T04:50:50.540Z,15.60
2023-05-22T04:53:17.298Z,16.60
2023-05-22T04:55:44.658Z,15.90
2023-05-22T04:58:11.612Z,15.20
2023-05-22T05:00:38.784Z,15.40
2023-05-22T05:03:08.267Z,17.10
2023-05-22T05:05:40.565Z,15.40
2023-05-22T05:08:09.550Z,15.20
2023-05-22T05:10:36.527Z,15.50
2023-05-22T05:13:03.630Z,15.40
2023-05-22T05:15:30.422Z,16.20
2023-05-22T05:17:57.266Z,15.90
2023-05-22T05:20:24.937Z,16.40
2023-05-22T05:22:52.735Z,15.90
2023-05-22T05:25:19.567Z,16.00
2023-05-22T05:27:46.700Z,16.10
2023-05-22T05:30:13.723Z,17.30
2023-05-22T05:32:40.763Z,17.00
2023-05-22T05:35:10.699Z,18.10
2023-05-22T05:37:37.551Z,15.50
2023-05-22T05:40:07.323Z,16.00
2023-05-22T05:42:34.153Z,14.20
2023-05-22T05:45:00.899Z,13.50
2023-05-22T05:47:29.930Z,13.70
2023-05-22T05:49:56.998Z,12.60
2023-05-22T05:52:26.599Z,14.70
2023-05-22T05:54:53.561Z,14.00
2023-05-22T05:57:23.883Z,13.20
2023-05-22T05:59:50.666Z,12.90
2023-05-22T06:02:17.626Z,12.40
2023-05-22T06:04:48.453Z,13.20
2023-05-22T06:07:15.942Z,14.20
2023-05-22T06:09:42.803Z,15.20
2023-05-22T06:12:12.911Z,14.00
2023-05-22T06:14:42.822Z,14.20
2023-05-22T06:17:09.810Z,13.90
2023-05-22T06:19:36.833Z,14.00
2023-05-22T06:22:03.775Z,14.50
2023-05-22T06:24:33.964Z,15.20
2023-05-22T06:27:02.631Z,14.80
2023-05-22T06:29:32.293Z,14.80
2023-05-22T06:32:01.545Z,16.10
2023-05-22T06:34:29.640Z,14.50
2023-05-22T06:36:56.977Z,14.50
2023-05-22T06:39:23.760Z,15.30
2023-05-22T06:41:50.553Z,15.80
2023-05-22T06:44:17.353Z,15.20
2023-05-22T06:46:44.304Z,14.60
2023-05-22T06:49:11.081Z,14.90
2023-05-22T06:51:38.105Z,13.80
2023-05-22T06:54:07.300Z,15.10
2023-05-22T06:56:36.600Z,15.10
2023-05-22T06:59:06.131Z,15.70
2023-05-22T07:01:33.512Z,16.40
2023-05-22T07:04:01.566Z,15.90
2023-05-22T07:06:39.237Z,14.70
2023-05-22T07:09:06.787Z,16.20
2023-05-22T07:11:33.620Z,16.30
2023-05-22T07:14:04.195Z,14.90
2023-05-22T07:16:31.700Z,14.70
2023-05-22T07:18:58.672Z,14.80
2023-05-22T07:21:25.817Z,15.60
2023-05-22T07:23:53.074Z,16.60
2023-05-22T07:26:20.042Z,15.10
2023-05-22T07:28:46.883Z,15.90
2023-05-22T07:31:15.930Z,16.20
2023-05-22T07:33:42.756Z,14.80
2023-05-22T07:36:09.639Z,15.10
2023-05-22T07:38:36.461Z,15.80
2023-05-22T07:41:05.002Z,16.10
2023-05-22T07:43:31.892Z,14.40
2023-05-22T07:45:58.909Z,15.80
2023-05-22T07:48:25.917Z,15.30
2023-05-22T07:50:52.926Z,14.40
2023-05-22T07:53:19.783Z,14.00
2023-05-22T07:55:46.717Z,13.80
2023-05-22T07:58:14.112Z,13.70
2023-05-22T08:00:43.900Z,13.90
2023-05-22T08:03:13.891Z,14.70
2023-05-22T08:05:43.273Z,14.30
2023-05-22T08:08:12.950Z,14.30
2023-05-22T08:13:10.259Z,15.10
2023-05-22T08:15:37.261Z,13.60
2023-05-22T08:18:04.419Z,13.90
2023-05-22T08:20:31.374Z,13.00
2023-05-22T08:22:59.450Z,14.90
2023-05-22T08:25:26.189Z,14.90
2023-05-22T08:27:53.076Z,14.20
2023-05-22T08:30:19.916Z,14.20
2023-05-22T08:32:46.964Z,14.10
2023-05-22T08:35:14.597Z,13.90
2023-05-22T08:37:41.810Z,13.50
2023-05-22T08:40:13.160Z,13.80
2023-05-22T08:42:40.190Z,13.60
2023-05-22T08:45:10.704Z,14.40
2023-05-22T08:47:37.932Z,13.50
2023-05-22T08:50:05.342Z,15.20
2023-05-22T08:52:44.341Z,12.70
2023-05-22T08:55:14.520Z,13.60
2023-05-22T08:57:45.776Z,13.30
2023-05-22T09:00:13.265Z,12.70
2023-05-22T09:02:40.260Z,13.00
2023-05-22T09:05:09.336Z,12.00
2023-05-22T09:07:38.169Z,10.90
2023-05-22T09:10:07.407Z,10.90
2023-05-22T09:12:34.409Z,10.10
2023-05-22T09:15:11.700Z,9.50
2023-05-22T09:17:41.731Z,10.20
2023-05-22T09:20:13.508Z,10.10
2023-05-22T09:22:42.555Z,9.10
2023-05-22T09:25:18.433Z,9.30
2023-05-22T09:27:46.553Z,8.90
2023-05-22T09:30:18.071Z,8.30
2023-05-22T09:32:46.961Z,8.30
2023-05-22T09:35:14.507Z,8.90
2023-05-22T09:37:41.541Z,9.30
2023-05-22T09:40:11.160Z,9.10
2023-05-22T09:42:38.143Z,9.30
2023-05-22T09:45:06.715Z,8.90
2023-05-22T09:47:34.687Z,8.30
2023-05-22T09:50:04.662Z,8.70
2023-05-22T09:52:36.192Z,8.20
2023-05-22T09:55:05.550Z,8.50
2023-05-22T09:57:34.211Z,8.80
2023-05-22T10:00:04.759Z,9.30
2023-05-22T10:02:34.366Z,8.40
2023-05-22T10:05:03.459Z,8.40
2023-05-22T10:07:37.536Z,8.70
2023-05-22T10:10:11.457Z,8.30
2023-05-22T10:12:57.994Z,7.90
2023-05-22T10:15:25.092Z,8.50
2023-05-22T10:17:52.110Z,8.90
2023-05-22T10:20:19.467Z,9.20
2023-05-22T10:22:47.584Z,9.20
2023-05-22T10:25:18.564Z,8.70
2023-05-22T10:27:49.869Z,9.00
2023-05-22T10:30:37.192Z,8.50
2023-05-22T10:33:19.315Z,10.00
2023-05-22T10:35:55.381Z,8.90
2023-05-22T10:38:40.281Z,9.80
2023-05-22T10:41:07.632Z,8.80
2023-05-22T10:43:41.083Z,10.00
2023-05-22T10:48:40.163Z,8.70
2023-05-22T10:51:08.351Z,9.60
2023-05-22T10:53:38.855Z,9.00
2023-05-22T10:56:14.107Z,8.80
2023-05-22T10:58:44.961Z,8.40
2023-05-22T11:01:16.379Z,10.10
2023-05-22T11:03:58.990Z,9.20
2023-05-22T11:06:43.579Z,9.60
2023-05-22T11:09:20.533Z,9.50
2023-05-22T11:11:48.378Z,8.70
2023-05-22T11:14:20.831Z,11.10
2023-05-22T11:16:47.840Z,9.70
2023-05-22T11:19:23.213Z,9.90
2023-05-22T11:21:51.199Z,9.30
2023-05-22T11:24:18.635Z,10.70
2023-05-22T11:27:02.501Z,9.20
2023-05-22T11:29:29.625Z,9.20
2023-05-22T11:31:58.283Z,9.00
2023-05-22T11:34:28.573Z,8.90
2023-05-22T11:36:59.953Z,9.40
2023-05-22T11:39:32.954Z,10.00
2023-05-22T11:41:59.834Z,10.10
2023-05-22T11:44:28.066Z,10.60
2023-05-22T11:46:54.935Z,11.30
2023-05-22T11:49:25.773Z,12.40
2023-05-22T11:51:52.767Z,11.30
2023-05-22T11:54:19.970Z,12.40
2023-05-22T11:56:46.733Z,11.70
2023-05-22T11:59:13.569Z,11.40
2023-05-22T12:01:40.539Z,11.90
2023-05-22T12:04:07.565Z,11.80
2023-05-22T12:06:34.933Z,12.40
2023-05-22T12:09:02.293Z,13.40
2023-05-22T12:11:29.222Z,13.30
2023-05-22T12:14:05.788Z,16.60
2023-05-22T12:16:36.806Z,16.70
2023-05-22T12:19:08.105Z,17.00
2023-05-22T12:21:36.745Z,16.30
2023-05-22T12:24:06.981Z,15.40
2023-05-22T12:26:33.931Z,12.90
2023-05-22T12:29:00.808Z,13.00
2023-05-22T12:31:27.677Z,11.20
2023-05-22T12:33:55.944Z,11.00
2023-05-22T12:36:33.606Z,10.00
2023-05-22T12:39:00.624Z,9.70
2023-05-22T12:41:27.438Z,9.30
2023-05-22T12:43:54.251Z,8.60
2023-05-22T12:46:21.275Z,9.20
2023-05-22T12:48:48.205Z,8.60
2023-05-22T12:51:15.104Z,9.60
2023-05-22T12:53:42.145Z,8.60
2023-05-22T12:56:08.908Z,9.40
2023-05-22T12:58:35.700Z,9.50
2023-05-22T13:01:02.495Z,9.80
2023-05-22T13:03:29.310Z,8.40
2023-05-22T13:05:56.124Z,9.60
2023-05-22T13:08:23.799Z,8.70
2023-05-22T13:10:50.674Z,9.60
2023-05-22T13:13:17.529Z,9.40
2023-05-22T13:15:44.417Z,9.70
2023-05-22T13:18:11.965Z,9.40
2023-05-22T13:20:38.851Z,9.70
2023-05-22T13:23:05.880Z,9.20
2023-05-22T13:25:32.680Z,9.50
2023-05-22T13:28:00.596Z,9.70
2023-05-22T13:30:28.506Z,10.00
2023-05-22T13:32:55.581Z,10.30
2023-05-22T13:35:25.432Z,10.20
2023-05-22T13:37:52.420Z,10.10
2023-05-22T13:40:19.851Z,10.30
2023-05-22T13:42:47.000Z,10.00
2023-05-22T13:45:16.924Z,10.30
2023-05-22T13:47:44.071Z,11.10
2023-05-22T13:50:11.159Z,9.80
2023-05-22T13:52:38.112Z,10.00
2023-05-22T13:55:05.990Z,9.70
2023-05-22T13:57:32.777Z,9.10
2023-05-22T13:59:59.769Z,9.50
2023-05-22T14:02:26.878Z,9.70
2023-05-22T14:04:53.900Z,10.50
2023-05-22T14:07:20.915Z,12.10
2023-05-22T14:09:47.834Z,12.20
2023-05-22T14:12:14.921Z,10.70
2023-05-22T14:14:41.904Z,9.80
2023-05-22T14:17:09.423Z,9.50
2023-05-22T14:19:36.668Z,8.10
2023-05-22T14:22:03.950Z,8.00
2023-05-22T14:24:30.947Z,8.10
2023-05-22T14:26:58.354Z,7.90
2023-05-22T14:29:25.980Z,9.10
2023-05-22T14:31:55.517Z,10.30
2023-05-22T14:34:22.354Z,10.50
2023-05-22T14:36:49.176Z,9.60
2023-05-22T14:39:16.199Z,10.50
2023-05-22T14:41:43.062Z,10.40
2023-05-22T14:44:09.886Z,9.70
2023-05-22T14:46:36.779Z,9.50
2023-05-22T14:49:03.589Z,9.20
2023-05-22T14:51:31.027Z,9.30
2023-05-22T14:53:58.297Z,9.10
2023-05-22T14:56:30.791Z,9.40
2023-05-22T14:58:57.952Z,8.70
2023-05-22T15:01:24.786Z,8.50
2023-05-22T15:03:51.664Z,9.00
2023-05-22T15:06:18.518Z,8.60
2023-05-22T15:08:45.651Z,8.90
2023-05-22T15:11:12.529Z,9.10
2023-05-22T15:13:39.368Z,9.10
2023-05-22T15:16:06.197Z,7.90
2023-05-22T15:18:33.252Z,10.30
2023-05-22T15:21:01.229Z,8.40
2023-05-22T15:23:28.154Z,7.80
2023-05-22T15:25:55.163Z,8.30
2023-05-22T15:28:25.564Z,8.60
2023-05-22T15:30:52.482Z,8.40
2023-05-22T15:33:19.502Z,8.50
2023-05-22T15:35:48.807Z,8.40
2023-05-22T15:38:18.857Z,8.30
2023-05-22T15:40:46.070Z,8.90
2023-05-22T15:43:16.288Z,8.60
2023-05-22T15:45:47.201Z,8.10
2023-05-22T15:48:15.227Z,8.00
2023-05-22T15:50:42.565Z,7.80
2023-05-22T15:53:09.451Z,7.70
2023-05-22T15:55:36.789Z,6.60
2023-05-22T15:58:06.331Z,7.00
2023-05-22T16:00:38.847Z,6.40
2023-05-22T16:03:08.449Z,5.80
2023-05-22T16:05:41.803Z,5.70
2023-05-22T16:08:11.940Z,5.50
2023-05-22T16:10:41.678Z,4.70
2023-05-22T16:13:10.872Z,4.60
2023-05-22T16:15:39.973Z,4.50
2023-05-22T16:18:07.866Z,4.20
2023-05-22T16:20:36.018Z,4.00
2023-05-22T16:23:03.032Z,4.20
2023-05-22T16:25:30.046Z,3.50
2023-05-22T16:27:57.274Z,3.70
2023-05-22T16:30:24.192Z,3.30
2023-05-22T16:32:51.375Z,3.40
2023-05-22T16:35:22.180Z,3.40
2023-05-22T16:37:50.308Z,3.30
2023-05-22T16:40:18.670Z,3.70
2023-05-22T16:42:45.637Z,3.70
2023-05-22T16:45:12.499Z,3.80
2023-05-22T16:47:39.878Z,3.60
2023-05-22T16:50:07.661Z,3.10
2023-05-22T16:52:34.688Z,3.60
2023-05-22T16:55:01.538Z,3.60
2023-05-22T16:57:28.764Z,3.30
2023-05-22T16:59:57.696Z,3.40
2023-05-22T17:02:24.882Z,2.80
2023-05-22T17:04:51.708Z,2.70
2023-05-22T17:07:18.556Z,2.90
2023-05-22T17:09:45.526Z,2.50
2023-05-22T17:12:12.310Z,2.70
2023-05-22T17:14:39.184Z,2.90
2023-05-22T17:17:06.476Z,2.60
2023-05-22T17:19:33.489Z,2.60
2023-05-22T17:22:00.443Z,3.00
2023-05-22T17:24:27.925Z,3.30
2023-05-22T17:26:54.932Z,3.10
2023-05-22T17:29:21.806Z,3.00
2023-05-22T17:31:51.598Z,2.60
2023-05-22T17:34:18.649Z,2.90
2023-05-22T17:36:45.703Z,3.50
2023-05-22T17:39:12.599Z,2.80
2023-05-22T17:41:39.461Z,3.00
2023-05-22T17:44:06.349Z,3.00
2023-05-22T17:46:33.314Z,3.30
2023-05-22T17:49:00.334Z,3.50
2023-05-22T17:51:27.325Z,3.30
2023-05-22T17:53:56.558Z,3.50
2023-05-22T17:56:23.895Z,2.90
2023-05-22T17:58:51.087Z,3.10
2023-05-22T18:01:18.654Z,3.80
2023-05-22T18:03:46.658Z,3.20
2023-05-22T18:06:13.692Z,3.50
2023-05-22T18:08:40.582Z,3.50
2023-05-22T18:11:07.515Z,3.20
2023-05-22T18:13:34.363Z,3.30
2023-05-22T18:16:01.718Z,3.10
2023-05-22T18:18:28.681Z,3.30
2023-05-22T18:20:56.253Z,3.90
2023-05-22T18:23:23.295Z,3.60
2023-05-22T18:25:50.449Z,3.50
2023-05-22T18:28:17.521Z,3.50
2023-05-22T18:30:49.671Z,3.50
2023-05-22T18:33:18.978Z,4.00
2023-05-22T18:35:46.123Z,3.30
2023-05-22T18:38:13.042Z,3.90
2023-05-22T18:40:42.463Z,3.70
2023-05-22T18:43:09.762Z,4.20
2023-05-22T18:45:36.931Z,3.40
2023-05-22T18:48:04.426Z,4.00
2023-05-22T18:50:31.410Z,4.10
2023-05-22T18:52:58.513Z,3.60
2023-05-22T18:55:25.500Z,3.80
2023-05-22T18:57:52.315Z,3.70
2023-05-22T19:00:19.131Z,3.50
2023-05-22T19:02:47.426Z,3.60
2023-05-22T19:05:14.272Z,4.10
2023-05-22T19:07:41.358Z,3.70
2023-05-22T19:10:08.868Z,3.70
2023-05-22T19:12:35.819Z,3.60
2023-05-22T19:15:05.226Z,3.50
2023-05-22T19:17:32.080Z,3.30
2023-05-22T19:19:58.918Z,3.10
2023-05-22T19:22:25.979Z,3.80
2023-05-22T19:24:52.861Z,3.20
2023-05-22T19:27:22.332Z,3.80
2023-05-22T19:29:49.396Z,4.10
2023-05-22T19:32:16.493Z,4.30
2023-05-22T19:34:43.410Z,3.80
2023-05-22T19:37:10.411Z,3.90
2023-05-22T19:39:37.383Z,3.70
2023-05-22T19:42:08.194Z,3.90
2023-05-22T19:44:35.073Z,3.70
2023-05-22T19:47:01.917Z,3.70
2023-05-22T19:49:31.647Z,3.50
2023-05-22T19:51:59.765Z,3.60
2023-05-22T19:54:26.686Z,3.80
2023-05-22T19:56:53.614Z,4.00
2023-05-22T19:59:20.821Z,3.90
2023-05-22T20:01:48.621Z,4.10
2023-05-22T20:04:16.207Z,3.40
2023-05-22T20:06:45.398Z,3.50
2023-05-22T20:09:12.453Z,3.70
2023-05-22T20:11:39.403Z,3.80
2023-05-22T20:14:07.785Z,3.70
2023-05-22T20:16:34.892Z,3.80
2023-05-22T20:19:02.743Z,4.10
2023-05-22T20:21:29.585Z,3.80
2023-05-22T20:23:56.773Z,3.90
2023-05-22T20:26:23.887Z,3.80
2023-05-22T20:28:51.118Z,3.80
2023-05-22T20:31:21.014Z,4.30
2023-05-22T20:33:48.399Z,3.90
2023-05-22T20:36:18.096Z,4.30
2023-05-22T20:38:45.023Z,4.00
2023-05-22T20:41:13.030Z,4.70
2023-05-22T20:43:43.668Z,4.00
2023-05-22T20:46:10.773Z,3.90
2023-05-22T20:48:38.199Z,4.60
2023-05-22T20:51:05.323Z,4.30
2023-05-22T20:53:32.133Z,4.50
2023-05-22T20:55:59.340Z,4.70
2023-05-22T20:58:33.694Z,4.80
2023-05-22T21:01:00.671Z,5.10
2023-05-22T21:03:27.559Z,4.90
2023-05-22T21:05:54.982Z,4.50
2023-05-22T21:08:21.877Z,5.20
2023-05-22T21:10:51.018Z,4.80
2023-05-22T21:13:19.263Z,4.50
2023-05-22T21:15:46.300Z,5.30
2023-05-22T21:18:13.310Z,4.90
2023-05-22T21:20:40.554Z,5.80
2023-05-22T21:23:10.117Z,5.90
2023-05-22T21:25:36.940Z,6.10
2023-05-22T21:28:04.324Z,5.90
2023-05-22T21:30:31.848Z,5.80
2023-05-22T21:32:58.791Z,5.30
2023-05-22T21:35:26.036Z,5.90
2023-05-22T21:37:53.415Z,5.30
2023-05-22T21:40:20.387Z,4.80
2023-05-22T21:42:47.608Z,4.90
2023-05-22T21:45:14.576Z,4.70
2023-05-22T21:47:41.798Z,4.80
2023-05-22T21:50:09.349Z,3.80
2023-05-22T21:52:38.476Z,3.80
2023-05-22T21:55:06.031Z,3.70
2023-05-22T21:57:32.955Z,3.70
2023-05-22T21:59:59.819Z,3.20
2023-05-22T22:02:26.567Z,2.80
2023-05-22T22:04:55.744Z,2.80
2023-05-22T22:07:22.515Z,2.70
2023-05-22T22:09:52.097Z,2.40
2023-05-22T22:12:18.952Z,2.80
2023-05-22T22:14:46.133Z,3.00
2023-05-22T22:17:13.059Z,2.90
2023-05-22T22:19:41.875Z,3.00
2023-05-22T22:22:09.158Z,2.90
2023-05-22T22:24:35.976Z,3.00
2023-05-22T22:27:03.474Z,3.00
2023-05-22T22:29:33.427Z,2.70
2023-05-22T22:32:00.336Z,2.40
2023-05-22T22:34:27.135Z,3.20
2023-05-22T22:36:54.116Z,3.00
2023-05-22T22:39:21.061Z,2.80
2023-05-22T22:41:47.861Z,3.40
2023-05-22T22:44:14.708Z,3.00
2023-05-22T22:46:44.426Z,3.00
2023-05-22T22:49:11.517Z,3.00
2023-05-22T22:51:38.272Z,2.60
2023-05-22T22:54:05.578Z,2.80
2023-05-22T22:56:33.088Z,3.10
2023-05-22T22:59:00.056Z,2.90
2023-05-22T23:01:26.813Z,3.50
2023-05-22T23:03:53.845Z,3.40
2023-05-22T23:06:20.962Z,3.50
2023-05-22T23:08:47.766Z,3.60
2023-05-22T23:11:14.697Z,3.70
2023-05-22T23:13:43.633Z,3.70
2023-05-22T23:16:11.088Z,4.00
2023-05-22T23:18:38.066Z,4.50
2023-05-22T23:21:05.247Z,4.00
2023-05-22T23:23:32.201Z,3.70
2023-05-22T23:25:59.245Z,3.70
2023-05-22T23:28:26.287Z,4.20
2023-05-22T23:30:53.233Z,3.40
2023-05-22T23:33:20.290Z,4.20
2023-05-22T23:35:47.098Z,4.30
2023-05-22T23:38:13.982Z,4.30
2023-05-22T23:40:42.865Z,3.80
2023-05-22T23:43:09.686Z,3.70
2023-05-22T23:45:36.491Z,3.60
2023-05-22T23:48:03.545Z,4.30
2023-05-22T23:50:30.658Z,3.60
2023-05-22T23:52:57.627Z,4.30
2023-05-22T23:55:27.647Z,4.00
2023-05-22T23:57:54.593Z,4.90
